Sierraville, California
Current Conditions -  °F | °C
As of 12:45 PM on Friday 28 Nov 2014 (Local Time) from KTRK Reporting Station
Broken Clouds Broken Clouds  
Wind Chill: 52°   Ceiling: 15000
Heat Index: 52°   Visibility: 10mi
Dew Point: -2°   Wind: 16mph
Humidity: 11%   Direction: 210°SSW
Pressure: 30.02"   Gusts: 24mph
Location:  39.59°N, 120.37°W
Report Text: KTRK 282045Z 21014G21KT 10SM SCT110 BKN150 11/M19 A3002 RMK NOSPECI
Loading
Personal Weather Stations






























Interactive Weather Map New forecast layout! Learn more

10-Day Weather Forecast

Advertisements
Track Severe Weather on mobile